Thackerville, OK (73459)

1:15 AM CST on February 01, 2015 (GMT -0600)
North Gainesville, TX I35 Exit 501 FM1202/CR444 | Change Station
CLOSE
Current Station
Personal Weather Station
Location: Gainesville, TX
Elevation: 853 ft
Nearby Weather Stations

Elev 853 ft 33.68 °N, 97.19 °W | Updated 1 minute ago

Overcast
Overcast
48.7 °F
Feels Like 49 °F
N
2.7
Wind Variable Wind from SSW

Today
High -- | Low -- °F
--% Chance of Precip.
Yesterday
High -- | Low -- °F
Precip. -- in
7:25 AM 5:59 PM
Waxing Gibbous, 93% visible
Pressure 29.88 in
Visibility 4.0 miles
Clouds Overcast 300 ft
Windchill 49 °F
Dew Point 48 °F
Humidity 99%
Rainfall 0.06 in
Snow Depth Not available.
UV 0 out of 12
Pollen 7.00 out of 12
Air Quality Not available.
Flu Activity Not available.
METAR KGLE 010655Z AUTO 19003KT 4SM -RA OVC003 10/09 A2988

More Conditions Fewer Conditions

Pressure 29.88 in
Visibility 4.0 miles
Clouds Overcast 300 ft
Windchill 49 °F
Dew Point 48 °F
Humidity 99%
Rainfall 0.06 in
Snow Depth Not available.
UV 0 out of 12
Pollen 7.00 out of 12
Air Quality Not available.
Flu Activity Not available.
METAR KGLE 010655Z AUTO 19003KT 4SM -RA OVC003 10/09 A2988

More Conditions Fewer Conditions

10-Day Weather Forecast

Almanac

Astronomy

Feb. 01, 2015 Rise Set
Actual Time
Civil Twilight
Nautical Twilight
Astronomical Twilight
Moon
Length of Visible Light
Length of Day
Tomorrow will be .
, % of the Moon is Illuminated

Today's Extremes

State Highs State Lows

Community

WunderPhotos

Upload Photos

1,792,325 photos uploaded!

WunderBlogs® & News

Nearby

Air Quality

  Air Quality AQ Index Pollutant
Not available.

Snow Depth

Station Depth Elevation

Earthquake Activity

City Distance Mag. Time & Date
Minimum magnitude displayed is 2.5.

Coastal Water Temperatures

Place Temperature

Nearby Weather Stations